Time;durP1;ratioP1;P1;durP2;ratioP2;P2;SDS_P1;SDS_P2;PMS_P1;PMS_P2;Temp;Humidity;BMP_temperature;BMP_pressure;BME280_temperature;BME280_humidity;BME280_pressure;Samples;Min_cycle;Max_cycle;Signal;HPM_P1;HPM_P2
2022/07/03 00:01:35;;;;;;;1.40;1.30;;;22.80;67.00;;;;;;4992490;28;20189;-71
2022/07/03 00:04:01;;;;;;;1.40;1.30;;;22.80;66.90;;;;;;4992721;28;20212;-73
2022/07/03 00:06:27;;;;;;;1.25;1.20;;;22.80;67.00;;;;;;4992155;28;20191;-71
2022/07/03 00:08:53;;;;;;;1.33;1.23;;;22.80;66.90;;;;;;4992451;28;20188;-71
2022/07/03 00:11:20;;;;;;;1.23;1.15;;;22.80;66.90;;;;;;4992236;28;20220;-71
2022/07/03 00:13:46;;;;;;;1.27;1.10;;;22.80;67.00;;;;;;4992229;28;20201;-71
2022/07/03 00:16:12;;;;;;;3.42;1.30;;;22.80;67.00;;;;;;4991714;28;20195;-71
2022/07/03 00:18:38;;;;;;;2.45;1.30;;;22.80;66.90;;;;;;4992289;28;20192;-71
2022/07/03 00:21:08;;;;;;;1.30;1.20;;;22.80;66.90;;;;;;4992501;28;20626;-71
2022/07/03 00:23:47;;;;;;;1.30;1.20;;;22.80;67.00;;;;;;4992103;28;20215;-71
2022/07/03 00:26:13;;;;;;;1.00;1.00;;;22.80;67.00;;;;;;4991954;28;20279;-71
2022/07/03 00:28:41;;;;;;;1.20;1.00;;;22.80;67.00;;;;;;4992168;28;20192;-71
2022/07/03 00:31:10;;;;;;;1.42;1.10;;;22.70;67.00;;;;;;4991935;28;20221;-71
2022/07/03 00:33:37;;;;;;;1.00;1.00;;;22.70;67.00;;;;;;4991946;28;20205;-71
2022/07/03 00:36:03;;;;;;;1.30;1.20;;;22.80;67.00;;;;;;4991949;28;20181;-72
2022/07/03 00:38:29;;;;;;;1.30;1.30;;;22.80;67.00;;;;;;4991489;28;20185;-71
2022/07/03 00:40:54;;;;;;;1.50;1.40;;;22.80;67.00;;;;;;4991666;28;20188;-72
2022/07/03 00:43:21;;;;;;;1.23;1.10;;;22.80;67.00;;;;;;5008209;28;20185;-72
2022/07/03 00:45:50;;;;;;;1.17;1.17;;;22.80;67.00;;;;;;4992102;28;20263;-72
2022/07/03 00:48:19;;;;;;;1.63;1.10;;;22.80;67.10;;;;;;4991177;28;20196;-71
2022/07/03 00:50:49;;;;;;;1.25;1.05;;;22.80;67.40;;;;;;4991529;28;20219;-71
2022/07/03 00:53:37;;;;;;;1.33;1.23;;;22.80;70.70;;;;;;4992968;28;20177;-71
2022/07/03 00:56:05;;;;;;;1.17;1.00;;;22.70;69.70;;;;;;4991683;28;20166;-72
2022/07/03 00:58:34;;;;;;;1.38;1.30;;;22.70;69.40;;;;;;4991268;28;20181;-71
2022/07/03 01:01:00;;;;;;;1.70;1.02;;;22.70;69.00;;;;;;4992914;28;20185;-71
2022/07/03 01:03:32;;;;;;;1.00;1.00;;;22.80;68.80;;;;;;4991749;28;20220;-72
2022/07/03 01:06:08;;;;;;;0.90;0.88;;;22.70;68.60;;;;;;4991589;28;20185;-72
2022/07/03 01:09:00;;;;;;;1.27;1.17;;;22.70;68.30;;;;;;4991307;28;20196;-72
2022/07/03 01:11:51;;;;;;;1.30;1.25;;;22.80;68.10;;;;;;4991787;28;20250;-71
2022/07/03 01:15:09;;;;;;;1.30;1.20;;;22.70;68.00;;;;;;4991432;28;20201;-71
2022/07/03 01:17:42;;;;;;;1.35;1.25;;;22.70;67.90;;;;;;4992130;28;20173;-72
2022/07/03 01:20:08;;;;;;;1.50;1.40;;;22.70;67.80;;;;;;4991461;28;20220;-71
2022/07/03 01:22:48;;;;;;;1.00;0.90;;;22.70;67.70;;;;;;4991557;28;20192;-71
2022/07/03 01:25:36;;;;;;;1.58;1.30;;;22.70;67.60;;;;;;4991528;28;20251;-71
2022/07/03 01:28:15;;;;;;;1.20;1.10;;;22.70;67.70;;;;;;4990931;28;20185;-71
2022/07/03 01:30:52;;;;;;;1.23;1.13;;;22.70;67.70;;;;;;4991383;28;20205;-71
2022/07/03 01:33:25;;;;;;;1.20;1.20;;;22.70;67.70;;;;;;4991618;28;20212;-71
2022/07/03 01:36:09;;;;;;;1.00;1.00;;;22.70;67.60;;;;;;4991383;28;20244;-71
2022/07/03 01:38:37;;;;;;;1.30;1.20;;;22.70;67.60;;;;;;4991328;28;20240;-72
2022/07/03 01:41:07;;;;;;;1.23;1.13;;;22.70;67.90;;;;;;4991641;28;20200;-71
2022/07/03 01:43:39;;;;;;;2.13;1.65;;;22.70;67.90;;;;;;4991314;28;20314;-71
2022/07/03 01:46:05;;;;;;;1.20;1.10;;;22.70;67.90;;;;;;4991063;28;20173;-71
2022/07/03 01:48:34;;;;;;;1.20;1.10;;;22.70;67.80;;;;;;4991037;28;20251;-71
2022/07/03 01:51:00;;;;;;;1.15;1.13;;;22.70;68.70;;;;;;4991338;28;20283;-72
2022/07/03 01:53:29;;;;;;;1.30;1.20;;;22.70;67.80;;;;;;4994029;28;20208;-71
2022/07/03 01:56:03;;;;;;;1.00;1.00;;;22.70;67.90;;;;;;4995126;28;20192;-72
2022/07/03 01:58:29;;;;;;;1.40;1.27;;;22.70;68.10;;;;;;4994364;28;20188;-71
2022/07/03 02:01:13;;;;;;;1.35;1.25;;;22.70;68.30;;;;;;4995130;28;20219;-71
2022/07/03 02:03:46;;;;;;;1.30;1.20;;;22.70;68.40;;;;;;4996248;28;20758;-72
2022/07/03 02:06:34;;;;;;;1.00;1.00;;;22.70;68.40;;;;;;4994991;28;20181;-71
2022/07/03 02:09:06;;;;;;;1.63;1.20;;;22.70;68.30;;;;;;4994736;28;20706;-72
2022/07/03 02:11:39;;;;;;;1.10;1.10;;;22.70;68.10;;;;;;4994866;28;20221;-71
2022/07/03 02:14:24;;;;;;;1.10;1.10;;;22.70;68.20;;;;;;4994692;28;20201;-72
2022/07/03 02:17:21;;;;;;;1.40;1.30;;;22.70;68.50;;;;;;4990752;28;20193;-72
2022/07/03 02:20:04;;;;;;;1.50;1.40;;;22.70;68.40;;;;;;4978135;28;20185;-71
2022/07/03 02:23:07;;;;;;;1.25;1.17;;;22.70;68.50;;;;;;4994672;28;20196;-72
2022/07/03 02:25:41;;;;;;;1.25;1.10;;;22.60;68.40;;;;;;4957476;28;20300;-71
2022/07/03 02:28:35;;;;;;;1.00;1.00;;;22.60;68.30;;;;;;4988576;28;20240;-71
2022/07/03 02:31:05;;;;;;;1.15;1.10;;;22.70;68.60;;;;;;4994252;28;20297;-71
2022/07/03 02:33:33;;;;;;;1.30;1.20;;;22.60;68.50;;;;;;4978022;28;20208;-71
2022/07/03 02:36:00;;;;;;;1.30;1.20;;;22.70;68.70;;;;;;4994118;28;20181;-71
2022/07/03 02:38:27;;;;;;;1.35;1.17;;;22.60;68.60;;;;;;4994856;28;20693;-71
2022/07/03 02:41:24;;;;;;;1.23;1.13;;;22.60;68.70;;;;;;4994192;28;20181;-72
2022/07/03 02:44:02;;;;;;;1.08;1.08;;;22.70;69.00;;;;;;4994319;28;20200;-71
2022/07/03 02:46:49;;;;;;;1.35;1.25;;;22.60;68.90;;;;;;4976849;28;20239;-71
2022/07/03 02:49:50;;;;;;;1.00;1.00;;;22.60;68.90;;;;;;4978127;28;20189;-72
2022/07/03 02:52:49;;;;;;;1.17;1.10;;;22.60;69.20;;;;;;4993341;28;20206;-71
2022/07/03 02:55:21;;;;;;;1.10;1.10;;;22.60;69.20;;;;;;4993896;28;20296;-72
2022/07/03 02:58:04;;;;;;;0.90;0.90;;;22.60;69.30;;;;;;4994483;28;20176;-71
2022/07/03 03:00:37;;;;;;;1.27;1.17;;;22.60;69.00;;;;;;4977550;28;20169;-71
2022/07/03 03:03:03;;;;;;;1.13;1.13;;;22.60;69.30;;;;;;4993977;28;20221;-71
2022/07/03 03:05:48;;;;;;;1.08;1.08;;;22.60;69.30;;;;;;4977667;28;20262;-71
2022/07/03 03:08:38;;;;;;;0.93;0.93;;;22.60;69.50;;;;;;4993187;28;20216;-71
2022/07/03 03:11:31;;;;;;;1.20;1.10;;;22.60;69.70;;;;;;4977601;28;20271;-71
2022/07/03 03:13:59;;;;;;;1.30;1.20;;;22.60;69.60;;;;;;4976983;28;20228;-71
2022/07/03 03:16:26;;;;;;;1.10;1.10;;;22.60;69.50;;;;;;4977005;28;20185;-77
2022/07/03 03:18:52;;;;;;;1.33;1.20;;;22.60;70.30;;;;;;4993357;28;20180;-72
2022/07/03 03:21:20;;;;;;;1.00;1.00;;;22.60;69.60;;;;;;4993425;28;20251;-73
2022/07/03 03:23:49;;;;;;;1.20;1.15;;;22.60;69.80;;;;;;4993163;28;20647;-71
2022/07/03 03:26:20;;;;;;;1.10;1.10;;;22.60;69.80;;;;;;4993544;28;20197;-73
2022/07/03 03:28:46;;;;;;;1.00;1.00;;;22.60;69.70;;;;;;5034016;22;20235;-71
2022/07/03 03:31:13;;;;;;;1.13;1.02;;;22.60;69.80;;;;;;5013414;28;20259;-71
2022/07/03 03:33:42;;;;;;;1.20;1.10;;;22.60;69.80;;;;;;4980104;28;20220;-71
2022/07/03 03:36:11;;;;;;;1.10;1.00;;;22.60;69.80;;;;;;4980653;28;20199;-71
2022/07/03 03:38:39;;;;;;;1.02;1.02;;;22.60;70.50;;;;;;4996053;28;20200;-71
2022/07/03 03:41:06;;;;;;;0.95;0.95;;;22.60;70.30;;;;;;4996221;28;20240;-71
2022/07/03 03:43:33;;;;;;;1.00;1.00;;;22.60;70.50;;;;;;5012567;28;20191;-71
2022/07/03 03:46:00;;;;;;;1.23;1.10;;;22.60;70.30;;;;;;4996202;28;20192;-69
2022/07/03 03:48:32;;;;;;;1.00;1.00;;;22.60;70.60;;;;;;4995805;28;20234;-71
2022/07/03 03:51:00;;;;;;;1.20;1.20;;;22.60;70.60;;;;;;4996318;28;20215;-71
2022/07/03 03:53:27;;;;;;;1.10;1.00;;;22.60;70.50;;;;;;4996073;28;20180;-71
2022/07/03 03:55:53;;;;;;;0.90;0.90;;;22.60;71.00;;;;;;4995852;28;20204;-71
2022/07/03 03:58:19;;;;;;;1.27;1.10;;;22.60;71.00;;;;;;4995535;28;20206;-70
2022/07/03 04:00:45;;;;;;;1.30;1.20;;;22.60;71.00;;;;;;4996188;28;20203;-70
2022/07/03 04:03:10;;;;;;;0.98;0.98;;;22.60;70.90;;;;;;4995784;28;20215;-71
2022/07/03 04:05:36;;;;;;;0.98;0.98;;;22.60;70.80;;;;;;4995737;28;20717;-71
2022/07/03 04:08:02;;;;;;;1.10;1.10;;;22.60;71.10;;;;;;4995215;28;20254;-71
2022/07/03 04:10:27;;;;;;;1.00;1.00;;;22.50;70.90;;;;;;4995870;28;20242;-71
2022/07/03 04:12:53;;;;;;;1.15;1.00;;;22.60;71.00;;;;;;4995751;28;20180;-71
2022/07/03 04:15:19;;;;;;;1.17;1.13;;;22.60;71.20;;;;;;4995439;28;20188;-71
2022/07/03 04:17:45;;;;;;;1.15;1.13;;;22.60;71.10;;;;;;4994822;28;20208;-71
2022/07/03 04:20:11;;;;;;;1.10;1.00;;;22.60;71.10;;;;;;4995777;28;20195;-71
2022/07/03 04:22:37;;;;;;;1.00;1.00;;;22.50;71.10;;;;;;4995408;28;20182;-71
2022/07/03 04:25:03;;;;;;;1.40;1.30;;;22.60;71.50;;;;;;5011942;28;20180;-71
2022/07/03 04:27:29;;;;;;;1.30;1.20;;;22.50;71.60;;;;;;4994730;28;20647;-71
2022/07/03 04:29:55;;;;;;;1.00;1.00;;;22.50;67.20;;;;;;4995501;28;20272;-71
2022/07/03 04:32:21;;;;;;;1.00;1.00;;;22.50;67.50;;;;;;4995407;28;20278;-71
2022/07/03 04:34:46;;;;;;;1.40;1.30;;;22.50;67.40;;;;;;4995531;28;20188;-71
2022/07/03 04:37:12;;;;;;;1.20;1.10;;;22.50;67.30;;;;;;5011287;28;20200;-71
2022/07/03 04:39:38;;;;;;;1.10;1.10;;;22.50;67.40;;;;;;4995277;28;20271;-71
2022/07/03 04:42:04;;;;;;;1.02;1.02;;;22.50;67.40;;;;;;4995316;28;20184;-71
2022/07/03 04:44:30;;;;;;;1.10;1.10;;;22.50;67.40;;;;;;4995550;28;20279;-71
2022/07/03 04:46:55;;;;;;;1.20;1.20;;;22.50;67.60;;;;;;4994342;28;20282;-71
2022/07/03 04:49:21;;;;;;;1.40;1.20;;;22.50;67.50;;;;;;4995258;28;20284;-71
2022/07/03 04:51:47;;;;;;;1.10;1.00;;;22.50;67.50;;;;;;4995366;28;20586;-71
2022/07/03 04:54:13;;;;;;;1.10;1.00;;;22.50;67.40;;;;;;4995508;28;20187;-72
2022/07/03 04:56:38;;;;;;;1.00;1.00;;;22.50;67.40;;;;;;4994378;28;20180;-71
2022/07/03 04:59:04;;;;;;;1.30;1.20;;;22.50;67.30;;;;;;4995007;28;20683;-71
2022/07/03 05:01:30;;;;;;;1.05;1.05;;;22.50;67.30;;;;;;4995119;28;20184;-70
2022/07/03 05:03:55;;;;;;;1.30;1.20;;;22.50;67.20;;;;;;5011487;28;20188;-71
2022/07/03 05:06:21;;;;;;;1.02;0.95;;;22.50;67.20;;;;;;4995166;28;20245;-71
2022/07/03 05:08:47;;;;;;;1.10;1.00;;;22.50;67.20;;;;;;4994332;28;20246;-71
2022/07/03 05:11:13;;;;;;;0.82;0.82;;;22.50;67.30;;;;;;4995182;28;20207;-71
2022/07/03 05:13:38;;;;;;;1.40;1.30;;;22.50;67.30;;;;;;4994999;28;20164;-71
2022/07/03 05:16:04;;;;;;;1.20;1.20;;;22.50;67.30;;;;;;4994990;28;20188;-71
2022/07/03 05:18:30;;;;;;;1.10;1.10;;;22.50;67.30;;;;;;4994342;28;20679;-71
2022/07/03 05:20:56;;;;;;;1.33;1.20;;;22.50;67.30;;;;;;4994769;28;20192;-71
2022/07/03 05:23:21;;;;;;;1.08;0.90;;;22.50;67.40;;;;;;4994748;28;20187;-71
2022/07/03 05:25:47;;;;;;;1.00;1.00;;;22.50;67.40;;;;;;4994723;28;20188;-71
2022/07/03 05:28:13;;;;;;;0.90;0.90;;;22.50;67.50;;;;;;4980148;28;20223;-70
2022/07/03 05:30:39;;;;;;;1.02;1.02;;;22.50;67.50;;;;;;4998698;28;20254;-72
2022/07/03 05:33:04;;;;;;;1.20;1.05;;;22.50;67.50;;;;;;4998663;28;20188;-71
2022/07/03 05:35:30;;;;;;;1.10;1.00;;;22.50;67.60;;;;;;4982516;28;20245;-70
2022/07/03 05:37:56;;;;;;;1.65;1.20;;;22.50;67.60;;;;;;4998117;28;20215;-71
2022/07/03 05:40:22;;;;;;;0.80;0.80;;;22.50;68.40;;;;;;4982470;28;20188;-71
2022/07/03 05:42:47;;;;;;;0.90;0.90;;;22.50;67.60;;;;;;4998619;28;20434;-71
2022/07/03 05:45:13;;;;;;;1.02;1.00;;;22.50;67.60;;;;;;4998666;28;20180;-71
2022/07/03 05:47:39;;;;;;;1.13;1.05;;;22.50;67.60;;;;;;4997418;28;20215;-71
2022/07/03 05:50:06;;;;;;;1.00;1.00;;;22.50;67.70;;;;;;4998206;28;20605;-71
2022/07/03 05:52:31;;;;;;;1.10;1.10;;;22.50;67.70;;;;;;4982048;28;20188;-71
2022/07/03 05:54:57;;;;;;;0.90;0.90;;;22.50;67.80;;;;;;4982220;28;20195;-70
2022/07/03 05:57:23;;;;;;;0.90;0.90;;;22.50;67.80;;;;;;4997613;28;20199;-71
2022/07/03 05:59:49;;;;;;;0.95;0.95;;;22.50;67.90;;;;;;4998146;28;20253;-71
2022/07/03 06:02:15;;;;;;;1.10;1.10;;;22.50;67.90;;;;;;4998554;28;20165;-71
2022/07/03 06:04:40;;;;;;;1.10;1.10;;;22.50;67.90;;;;;;4997954;28;20207;-71
2022/07/03 06:07:06;;;;;;;1.15;1.00;;;22.50;67.90;;;;;;5015016;28;20180;-71
2022/07/03 06:09:32;;;;;;;1.10;1.10;;;22.50;68.00;;;;;;4997986;28;20180;-71
2022/07/03 06:11:58;;;;;;;0.93;0.93;;;22.50;68.00;;;;;;5015384;28;20227;-71
2022/07/03 06:14:23;;;;;;;1.02;0.95;;;22.50;68.00;;;;;;4998245;28;20181;-71
2022/07/03 06:16:49;;;;;;;1.00;1.00;;;22.50;68.00;;;;;;4997211;28;20207;-71
2022/07/03 06:19:15;;;;;;;1.23;1.13;;;22.50;68.00;;;;;;5015468;28;20275;-71
2022/07/03 06:21:41;;;;;;;1.15;1.00;;;22.50;68.10;;;;;;5015304;28;20270;-71
2022/07/03 06:24:07;;;;;;;0.85;0.85;;;22.50;68.10;;;;;;4997782;28;20180;-71
2022/07/03 06:26:33;;;;;;;1.00;1.00;;;22.50;68.20;;;;;;5015249;28;20214;-71
2022/07/03 06:28:58;;;;;;;1.00;0.93;;;22.50;68.10;;;;;;4997158;28;20212;-71
2022/07/03 06:31:24;;;;;;;0.90;0.90;;;22.60;68.30;;;;;;4997681;28;20220;-71
2022/07/03 06:33:50;;;;;;;0.90;0.90;;;22.60;68.10;;;;;;4997819;28;20226;-71
2022/07/03 06:36:16;;;;;;;1.00;1.00;;;22.60;68.20;;;;;;4996126;28;20185;-71
2022/07/03 06:38:41;;;;;;;1.35;1.10;;;22.60;68.30;;;;;;4976980;28;20248;-71
2022/07/03 06:41:07;;;;;;;1.10;1.10;;;22.60;68.40;;;;;;4995294;28;20193;-71
2022/07/03 06:43:33;;;;;;;0.98;0.98;;;22.50;68.40;;;;;;4977906;28;20193;-71
2022/07/03 06:46:00;;;;;;;1.00;1.00;;;22.60;68.30;;;;;;4995153;28;20189;-71
2022/07/03 06:48:25;;;;;;;0.95;0.95;;;22.60;68.30;;;;;;4983918;28;20208;-71
2022/07/03 06:50:51;;;;;;;0.80;0.80;;;22.60;68.30;;;;;;4998357;28;20219;-71
2022/07/03 06:53:17;;;;;;;0.90;0.90;;;22.60;68.30;;;;;;4997265;28;20180;-71
2022/07/03 06:55:42;;;;;;;1.10;1.10;;;22.60;68.50;;;;;;4996949;28;20246;-71
2022/07/03 06:58:08;;;;;;;0.90;0.90;;;22.60;68.40;;;;;;4996581;28;20219;-71
2022/07/03 07:00:34;;;;;;;1.13;1.05;;;22.60;68.40;;;;;;4997221;28;20282;-71
2022/07/03 07:03:00;;;;;;;0.90;0.90;;;22.60;68.40;;;;;;5013191;28;20195;-71
2022/07/03 07:05:26;;;;;;;0.90;0.90;;;22.60;68.50;;;;;;4996822;28;20191;-71
2022/07/03 07:07:52;;;;;;;1.00;1.00;;;22.60;68.50;;;;;;4996186;28;20200;-71
2022/07/03 07:10:17;;;;;;;1.33;1.17;;;22.60;68.50;;;;;;5014133;28;20212;-71
2022/07/03 07:12:43;;;;;;;0.98;0.98;;;22.60;68.50;;;;;;4997130;28;20184;-71
2022/07/03 07:15:10;;;;;;;0.90;0.90;;;22.60;68.50;;;;;;4996846;28;20181;-71
2022/07/03 07:17:35;;;;;;;0.90;0.90;;;22.60;68.60;;;;;;4996200;28;20267;-71
2022/07/03 07:20:02;;;;;;;1.30;1.20;;;22.60;68.60;;;;;;4996579;28;20275;-71
2022/07/03 07:22:27;;;;;;;0.98;0.98;;;22.60;68.60;;;;;;5014275;28;20184;-71
2022/07/03 07:24:53;;;;;;;0.90;0.90;;;22.60;68.70;;;;;;4996655;28;20185;-71
2022/07/03 07:27:19;;;;;;;0.90;0.90;;;22.60;68.70;;;;;;5013142;28;20228;-71
2022/07/03 07:29:45;;;;;;;0.90;0.90;;;22.60;68.80;;;;;;4980306;28;20240;-72
2022/07/03 07:32:11;;;;;;;1.05;1.05;;;22.60;68.80;;;;;;4996636;28;20208;-73
2022/07/03 07:34:37;;;;;;;1.00;1.00;;;22.60;68.80;;;;;;4996568;28;20180;-73
2022/07/03 07:37:03;;;;;;;0.90;0.90;;;22.60;68.90;;;;;;4992297;28;20188;-73
2022/07/03 07:39:28;;;;;;;0.90;0.90;;;22.60;68.60;;;;;;4993389;28;20189;-73
2022/07/03 07:41:54;;;;;;;1.58;0.88;;;22.60;68.80;;;;;;4993072;28;20192;-72
2022/07/03 07:44:20;;;;;;;1.00;1.00;;;22.70;69.00;;;;;;4992977;28;20202;-73
2022/07/03 07:46:46;;;;;;;1.20;0.98;;;22.70;69.00;;;;;;4992803;28;20243;-73
2022/07/03 07:49:11;;;;;;;0.80;0.80;;;22.70;69.00;;;;;;4992243;28;20205;-73
2022/07/03 07:51:37;;;;;;;1.10;1.00;;;22.70;69.30;;;;;;4992110;28;20216;-73
2022/07/03 07:54:03;;;;;;;1.02;0.80;;;22.70;69.20;;;;;;4992856;28;20189;-73
2022/07/03 07:56:29;;;;;;;1.02;1.02;;;22.70;69.00;;;;;;4992833;28;20185;-73
2022/07/03 07:58:55;;;;;;;1.27;1.17;;;22.70;69.00;;;;;;4992166;28;20213;-72
2022/07/03 08:06:49;;;;;;;1.20;1.15;;;22.70;69.00;;;;;;4992318;28;20196;-72
2022/07/03 08:09:15;;;;;;;0.80;0.80;;;22.80;69.00;;;;;;4976018;28;20184;-74
2022/07/03 08:11:41;;;;;;;0.93;0.93;;;22.70;68.90;;;;;;4993758;28;20688;-71
2022/07/03 08:14:07;;;;;;;1.40;1.00;;;22.70;68.90;;;;;;4992799;28;20185;-73
2022/07/03 08:16:34;;;;;;;1.42;0.98;;;22.70;68.90;;;;;;4992373;28;20246;-74
2022/07/03 08:19:01;;;;;;;0.98;0.98;;;22.70;68.90;;;;;;4991838;28;20251;-73
2022/07/03 08:21:27;;;;;;;0.90;0.90;;;22.80;68.80;;;;;;4992726;28;20185;-73
2022/07/03 08:23:53;;;;;;;1.70;0.90;;;22.70;68.80;;;;;;4976097;28;20644;-73
2022/07/03 08:26:19;;;;;;;0.98;0.98;;;22.80;68.70;;;;;;5008821;28;20192;-73
2022/07/03 08:28:45;;;;;;;0.98;0.98;;;22.80;68.70;;;;;;4991831;28;20220;-73
2022/07/03 08:31:10;;;;;;;0.88;0.88;;;22.70;68.50;;;;;;4992592;28;20201;-73
2022/07/03 08:33:36;;;;;;;1.35;0.90;;;22.80;68.20;;;;;;4992490;28;20181;-73
2022/07/03 08:36:04;;;;;;;1.08;1.02;;;22.80;68.30;;;;;;4975897;28;20270;-73
2022/07/03 08:38:33;;;;;;;0.98;0.98;;;22.80;68.30;;;;;;4991798;28;20208;-72
2022/07/03 08:41:03;;;;;;;0.80;0.80;;;22.80;68.00;;;;;;4992234;28;20212;-73
2022/07/03 08:43:29;;;;;;;0.90;0.90;;;22.80;67.90;;;;;;4975915;28;20698;-72
2022/07/03 08:46:00;;;;;;;1.95;0.90;;;22.90;68.00;;;;;;4992066;28;20189;-73
2022/07/03 08:48:29;;;;;;;1.05;1.05;;;22.90;68.10;;;;;;4991546;28;20580;-73
2022/07/03 08:50:58;;;;;;;0.93;0.93;;;22.90;68.30;;;;;;4992116;28;20259;-73
2022/07/03 08:53:24;;;;;;;1.00;1.00;;;22.90;68.10;;;;;;4991803;28;20279;-72
2022/07/03 08:55:50;;;;;;;0.88;0.88;;;22.90;68.30;;;;;;4975656;28;20180;-72
2022/07/03 08:58:19;;;;;;;1.00;1.00;;;22.90;68.10;;;;;;4975128;28;20212;-73
2022/07/03 09:00:45;;;;;;;0.80;0.80;;;22.90;68.00;;;;;;4991620;28;20660;-73
2022/07/03 09:03:13;;;;;;;1.10;1.10;;;22.90;68.30;;;;;;4991707;28;20199;-73
2022/07/03 09:05:39;;;;;;;1.38;0.90;;;22.90;68.00;;;;;;4975861;28;20189;-73
2022/07/03 09:08:10;;;;;;;1.08;0.95;;;22.90;68.00;;;;;;4974968;28;20209;-73
2022/07/03 09:10:36;;;;;;;0.80;0.80;;;23.00;68.20;;;;;;4991923;28;20279;-73
2022/07/03 09:13:02;;;;;;;1.58;1.05;;;23.00;68.30;;;;;;4992057;28;20177;-74
2022/07/03 09:15:28;;;;;;;0.90;0.90;;;23.00;68.40;;;;;;4975524;28;20196;-71
2022/07/03 09:18:04;;;;;;;1.10;1.00;;;23.00;68.10;;;;;;4984042;28;20193;-72
2022/07/03 09:20:40;;;;;;;0.80;0.80;;;22.90;68.10;;;;;;4975496;28;20203;-73
2022/07/03 09:23:17;;;;;;;0.80;0.80;;;23.00;68.10;;;;;;4959364;28;20267;-73
2022/07/03 09:25:57;;;;;;;1.02;1.00;;;23.00;68.00;;;;;;4975434;28;20172;-72
2022/07/03 09:28:51;;;;;;;0.70;0.70;;;23.00;68.10;;;;;;4974871;28;20220;-74
2022/07/03 09:31:20;;;;;;;1.00;0.90;;;23.00;68.20;;;;;;4975299;28;20215;-74
2022/07/03 09:34:09;;;;;;;0.80;0.80;;;23.00;68.10;;;;;;4966551;28;20184;-73
2022/07/03 09:36:53;;;;;;;0.70;0.70;;;23.00;68.20;;;;;;4995055;28;20530;-73
2022/07/03 09:39:30;;;;;;;0.77;0.77;;;23.00;68.10;;;;;;5011723;28;20192;-74
2022/07/03 09:42:09;;;;;;;0.55;0.55;;;23.00;68.10;;;;;;4995053;28;20176;-73
2022/07/03 09:44:45;;;;;;;1.48;0.90;;;23.00;68.00;;;;;;5011166;28;20187;-73
2022/07/03 09:47:15;;;;;;;1.17;0.85;;;23.00;67.80;;;;;;4992715;28;20250;-73
2022/07/03 09:49:55;;;;;;;0.90;0.90;;;23.00;67.60;;;;;;5011191;28;20199;-73
2022/07/03 09:52:34;;;;;;;0.90;0.90;;;23.00;67.60;;;;;;5011183;28;20222;-73
2022/07/03 09:55:09;;;;;;;0.88;0.70;;;23.00;67.90;;;;;;4978359;28;20202;-72
2022/07/03 09:57:44;;;;;;;0.95;0.73;;;23.00;67.90;;;;;;4993888;28;20215;-73
2022/07/03 10:00:20;;;;;;;1.92;1.13;;;23.00;67.90;;;;;;5010919;28;20237;-74
2022/07/03 10:02:59;;;;;;;1.63;0.90;;;23.00;67.90;;;;;;4978689;28;20195;-73
2022/07/03 10:05:36;;;;;;;0.75;0.73;;;23.00;68.00;;;;;;4978347;28;20183;-73
2022/07/03 10:08:11;;;;;;;0.73;0.73;;;23.00;68.10;;;;;;4993811;28;20208;-71
2022/07/03 10:10:42;;;;;;;0.90;0.90;;;23.10;68.10;;;;;;4994397;28;20782;-71
2022/07/03 10:13:08;;;;;;;3.00;1.10;;;23.00;67.60;;;;;;4994921;28;20267;-72
2022/07/03 10:15:39;;;;;;;1.30;1.20;;;23.00;67.40;;;;;;4997908;28;20644;-72
2022/07/03 10:18:08;;;;;;;1.15;0.90;;;23.10;67.60;;;;;;4997591;28;20238;-71
2022/07/03 10:20:47;;;;;;;1.65;0.93;;;23.00;67.20;;;;;;4998066;28;20184;-72
2022/07/03 10:23:21;;;;;;;1.63;1.00;;;23.10;67.50;;;;;;4997845;28;20199;-72
2022/07/03 10:25:48;;;;;;;1.38;1.00;;;23.10;67.50;;;;;;4997698;28;20187;-72
2022/07/03 10:28:16;;;;;;;2.95;0.88;;;23.10;67.60;;;;;;4997132;28;20211;-72
2022/07/03 10:30:48;;;;;;;2.50;1.05;;;23.10;67.80;;;;;;4997552;28;20284;-72
2022/07/03 10:33:15;;;;;;;0.90;0.90;;;23.10;67.70;;;;;;4997522;28;20271;-71
2022/07/03 10:35:53;;;;;;;1.15;1.00;;;23.10;67.50;;;;;;4997526;28;20176;-71
2022/07/03 10:38:41;;;;;;;2.85;1.10;;;23.00;67.70;;;;;;4996874;28;20207;-71
2022/07/03 10:46:45;;;;;;;3.10;1.30;;;23.10;67.30;;;;;;4996358;28;20253;-72
2022/07/03 10:49:12;;;;;;;1.80;0.85;;;23.10;67.70;;;;;;5027387;23;20240;-71
2022/07/03 10:52:00;;;;;;;2.03;1.10;;;23.10;67.60;;;;;;5013224;28;20216;-73
2022/07/03 10:54:36;;;;;;;4.80;1.50;;;23.10;67.70;;;;;;5013592;28;20188;-72
2022/07/03 10:57:16;;;;;;;8.02;1.25;;;23.10;68.00;;;;;;5013594;28;20183;-73
2022/07/03 10:59:45;;;;;;;3.08;1.20;;;23.10;68.00;;;;;;5010522;28;20204;-72
2022/07/03 11:02:26;;;;;;;2.45;1.13;;;23.10;67.70;;;;;;4994312;28;20188;-72
2022/07/03 11:05:01;;;;;;;2.70;1.25;;;23.10;67.30;;;;;;5010505;28;20284;-72
2022/07/03 11:07:38;;;;;;;6.72;1.48;;;23.10;67.50;;;;;;4977344;28;20199;-72
2022/07/03 11:10:10;;;;;;;2.72;1.17;;;23.10;67.90;;;;;;5010055;28;20209;-72
2022/07/03 11:12:56;;;;;;;3.00;1.23;;;23.10;67.90;;;;;;4977637;28;20705;-73
2022/07/03 11:15:41;;;;;;;6.20;1.73;;;23.10;68.10;;;;;;4977792;28;20192;-73
2022/07/03 11:18:08;;;;;;;3.28;1.33;;;23.10;68.00;;;;;;4992822;28;20216;-73
2022/07/03 11:20:46;;;;;;;4.90;1.33;;;23.10;68.00;;;;;;4977689;28;20192;-72
2022/07/03 11:23:30;;;;;;;3.30;1.15;;;23.10;68.00;;;;;;4961497;28;20260;-72
2022/07/03 11:25:58;;;;;;;4.70;1.40;;;23.20;68.10;;;;;;4976346;28;20212;-73
2022/07/03 11:28:33;;;;;;;4.13;1.30;;;23.20;67.80;;;;;;4976583;28;20215;-74
2022/07/03 11:31:08;;;;;;;4.82;1.38;;;23.20;68.10;;;;;;4993575;28;20208;-72
2022/07/03 11:34:06;;;;;;;3.50;1.45;;;23.20;68.10;;;;;;4993631;28;20232;-73
2022/07/03 11:36:33;;;;;;;5.78;1.65;;;23.20;68.20;;;;;;4976035;28;20204;-74
2022/07/03 11:38:59;;;;;;;3.38;1.25;;;23.20;68.40;;;;;;4992501;28;20264;-74
2022/07/03 11:41:47;;;;;;;3.47;1.38;;;23.10;68.20;;;;;;5009881;28;20185;-74
2022/07/03 11:44:20;;;;;;;4.05;1.58;;;23.10;68.10;;;;;;4976491;28;20201;-76
2022/07/03 11:46:51;;;;;;;7.85;1.77;;;23.20;67.90;;;;;;4992770;28;20328;-75
2022/07/03 11:49:22;;;;;;;7.07;1.77;;;23.10;67.90;;;;;;4992381;28;20212;-74
2022/07/03 11:52:03;;;;;;;4.80;1.40;;;23.10;68.00;;;;;;4993190;28;20216;-74
2022/07/03 11:54:50;;;;;;;6.70;1.70;;;23.20;68.20;;;;;;4992900;28;20268;-73
2022/07/03 11:57:16;;;;;;;3.70;1.60;;;23.20;68.10;;;;;;4977013;28;20223;-79
2022/07/03 11:59:42;;;;;;;6.75;2.03;;;23.10;68.30;;;;;;4976390;28;20197;-74
2022/07/03 12:02:08;;;;;;;4.10;1.50;;;23.20;69.00;;;;;;4993076;28;20191;-73
2022/07/03 12:04:33;;;;;;;4.60;1.25;;;23.20;68.70;;;;;;4993102;28;20181;-72
2022/07/03 12:07:01;;;;;;;5.55;1.58;;;23.10;68.40;;;;;;5009018;28;20242;-72
2022/07/03 12:09:34;;;;;;;10.00;2.92;;;23.30;69.00;;;;;;4992044;28;20220;-74
2022/07/03 12:12:04;;;;;;;15.85;3.97;;;23.40;69.30;;;;;;4992381;28;20208;-72
2022/07/03 12:14:55;;;;;;;17.48;4.80;;;23.50;70.70;;;;;;4992801;28;20185;-73
2022/07/03 12:17:24;;;;;;;16.67;5.30;;;23.60;71.20;;;;;;4993222;28;20173;-72
2022/07/03 12:19:54;;;;;;;11.18;3.40;;;23.70;70.90;;;;;;5008832;28;20255;-73
2022/07/03 12:22:33;;;;;;;10.68;2.92;;;23.70;70.70;;;;;;4992414;28;20184;-72
2022/07/03 12:25:02;;;;;;;11.13;2.90;;;23.70;70.40;;;;;;5008904;28;20181;-72
2022/07/03 12:27:31;;;;;;;11.45;3.67;;;23.70;70.10;;;;;;4975719;28;20548;-72
2022/07/03 12:29:58;;;;;;;11.50;3.00;;;23.70;70.30;;;;;;4992255;28;20284;-72
2022/07/03 12:32:24;;;;;;;15.68;2.83;;;23.70;69.90;;;;;;4993532;28;20255;-72
2022/07/03 12:34:50;;;;;;;8.70;2.33;;;23.70;69.70;;;;;;4976098;28;20188;-71
2022/07/03 12:37:16;;;;;;;9.27;2.35;;;23.80;69.50;;;;;;4992087;28;20295;-73
2022/07/03 12:39:46;;;;;;;9.27;2.88;;;23.80;69.70;;;;;;4992813;28;20292;-73
2022/07/03 12:42:19;;;;;;;11.30;2.70;;;23.70;69.70;;;;;;4975799;28;20193;-72
2022/07/03 12:44:59;;;;;;;9.45;2.30;;;23.80;69.80;;;;;;4993231;28;20177;-72
2022/07/03 12:47:26;;;;;;;8.48;2.20;;;23.80;69.50;;;;;;4974925;28;20284;-72
2022/07/03 12:49:57;;;;;;;5.15;1.85;;;23.80;69.40;;;;;;4992082;28;20213;-72
2022/07/03 12:52:24;;;;;;;9.13;2.20;;;23.80;69.40;;;;;;4992148;28;20212;-73
2022/07/03 12:54:50;;;;;;;6.45;2.10;;;23.80;69.40;;;;;;5008371;28;20200;-72
2022/07/03 13:00:19;;;;;;;5.50;2.08;;;23.80;69.40;;;;;;5008533;28;20299;-72
2022/07/03 13:02:48;;;;;;;4.05;2.20;;;23.80;69.30;;;;;;4992136;28;20185;-72
2022/07/03 13:05:21;;;;;;;6.03;1.90;;;23.80;69.30;;;;;;4991759;28;20272;-71
2022/07/03 13:07:53;;;;;;;5.05;1.92;;;23.80;69.20;;;;;;4991348;28;20269;-72
2022/07/03 13:10:22;;;;;;;4.22;1.80;;;23.80;69.50;;;;;;4991649;28;20188;-72
2022/07/03 13:12:57;;;;;;;4.70;1.75;;;23.80;69.90;;;;;;4993002;28;20181;-72
2022/07/03 13:15:28;;;;;;;5.05;1.60;;;23.80;70.00;;;;;;5008141;28;20572;-72
2022/07/03 13:17:54;;;;;;;4.40;1.80;;;23.80;70.10;;;;;;4991091;28;20618;-72